Time;durP1;ratioP1;P1;durP2;ratioP2;P2;SDS_P1;SDS_P2;PMS_P1;PMS_P2;Temp;Humidity;BMP_temperature;BMP_pressure;BME280_temperature;BME280_humidity;BME280_pressure;Samples;Min_cycle;Max_cycle;Signal;HPM_P1;HPM_P2
2021/01/13 00:00:21;;;;;;;52.40;30.13;;;0.80;90.10;;;;;;5013279;28;20222;-65
2021/01/13 00:02:48;;;;;;;53.80;31.43;;;0.80;90.20;;;;;;5012808;28;20212;-64
2021/01/13 00:05:15;;;;;;;50.57;30.07;;;0.80;90.20;;;;;;5013516;28;20261;-64
2021/01/13 00:07:44;;;;;;;46.53;28.37;;;0.80;90.20;;;;;;5013172;28;20224;-65
2021/01/13 00:10:12;;;;;;;48.53;28.53;;;0.90;90.20;;;;;;5012704;28;20228;-65
2021/01/13 00:12:39;;;;;;;47.03;29.33;;;0.80;90.10;;;;;;5012699;28;20656;-65
2021/01/13 00:15:07;;;;;;;45.80;29.33;;;0.80;90.10;;;;;;5011296;28;20218;-65
2021/01/13 00:17:35;;;;;;;47.90;28.10;;;0.80;90.20;;;;;;5024803;28;20442;-65
2021/01/13 00:20:04;;;;;;;58.43;29.57;;;0.80;90.20;;;;;;5028073;28;20212;-65
2021/01/13 00:22:31;;;;;;;49.97;30.17;;;0.80;90.20;;;;;;5012661;28;20216;-65
2021/01/13 00:24:57;;;;;;;50.17;29.60;;;0.70;90.20;;;;;;5013342;28;20664;-65
2021/01/13 00:27:25;;;;;;;44.87;27.67;;;0.70;90.20;;;;;;5011612;28;20226;-65
2021/01/13 00:29:53;;;;;;;47.13;28.50;;;0.70;90.30;;;;;;5010507;28;20223;-65
2021/01/13 00:32:19;;;;;;;44.67;28.27;;;0.60;90.30;;;;;;5013281;28;20200;-65
2021/01/13 00:34:46;;;;;;;52.30;27.10;;;0.60;90.20;;;;;;5010599;28;20216;-65
2021/01/13 00:37:13;;;;;;;50.27;28.93;;;0.60;90.20;;;;;;5012809;28;20409;-65
2021/01/13 00:39:41;;;;;;;46.37;29.03;;;0.60;90.30;;;;;;5012604;28;20690;-64
2021/01/13 00:42:08;;;;;;;48.87;28.40;;;0.60;90.30;;;;;;5013247;28;20223;-65
2021/01/13 00:44:35;;;;;;;46.83;27.90;;;0.50;90.30;;;;;;5013150;28;20265;-65
2021/01/13 00:47:01;;;;;;;55.50;29.57;;;0.50;90.30;;;;;;5012324;28;20219;-65
2021/01/13 00:49:29;;;;;;;44.47;26.97;;;0.50;90.30;;;;;;5014948;28;20200;-65
2021/01/13 00:51:55;;;;;;;49.13;28.30;;;0.50;90.20;;;;;;5012191;28;20232;-64
2021/01/13 00:54:22;;;;;;;46.83;28.73;;;0.50;90.30;;;;;;5009372;28;20214;-64
2021/01/13 00:56:49;;;;;;;47.50;27.83;;;0.50;90.30;;;;;;5011985;28;20211;-64
2021/01/13 00:59:16;;;;;;;46.23;29.20;;;0.50;90.40;;;;;;5009931;28;20226;-65
2021/01/13 01:01:45;;;;;;;49.07;29.10;;;0.50;90.40;;;;;;5012482;28;20216;-65
2021/01/13 01:04:13;;;;;;;46.03;27.60;;;0.50;90.40;;;;;;5012072;28;20293;-65
2021/01/13 01:06:40;;;;;;;45.27;27.37;;;0.50;90.40;;;;;;5017293;28;20723;-65
2021/01/13 01:09:08;;;;;;;44.63;27.80;;;0.50;90.40;;;;;;5013161;28;20295;-65
2021/01/13 01:11:37;;;;;;;49.73;28.03;;;0.50;90.40;;;;;;5011736;28;20238;-65
2021/01/13 01:14:06;;;;;;;43.83;28.13;;;0.60;90.40;;;;;;5012484;28;20219;-65
2021/01/13 01:16:41;;;;;;;42.90;27.20;;;0.50;90.40;;;;;;5010601;28;20265;-65
2021/01/13 01:19:09;;;;;;;44.73;27.30;;;0.50;90.40;;;;;;5027974;28;20218;-65
2021/01/13 01:21:40;;;;;;;40.73;26.87;;;0.50;90.40;;;;;;5027052;28;20222;-65
2021/01/13 01:24:07;;;;;;;44.23;26.20;;;0.50;90.40;;;;;;5018155;28;20793;-65
2021/01/13 01:26:44;;;;;;;47.10;27.20;;;0.50;90.40;;;;;;5017833;28;20224;-65
2021/01/13 01:29:11;;;;;;;45.17;27.27;;;0.50;90.40;;;;;;5018699;28;20212;-65
2021/01/13 01:31:37;;;;;;;40.47;25.30;;;0.50;90.40;;;;;;5033545;28;20227;-65
2021/01/13 01:34:04;;;;;;;45.90;25.40;;;0.50;90.40;;;;;;5018826;28;20278;-65
2021/01/13 01:36:31;;;;;;;37.70;24.30;;;0.50;90.40;;;;;;5034093;28;20243;-64
2021/01/13 01:38:57;;;;;;;41.23;25.03;;;0.50;90.40;;;;;;5017744;28;20199;-65
2021/01/13 01:41:24;;;;;;;37.73;24.60;;;0.50;90.40;;;;;;5016529;28;20211;-65
2021/01/13 01:43:50;;;;;;;40.67;24.57;;;0.50;90.40;;;;;;5014076;28;20230;-65
2021/01/13 01:46:18;;;;;;;35.77;21.47;;;0.50;90.40;;;;;;5018030;28;20492;-65
2021/01/13 01:48:45;;;;;;;34.87;21.53;;;0.50;90.40;;;;;;5018418;28;20265;-65
2021/01/13 01:51:19;;;;;;;34.53;20.87;;;0.50;90.30;;;;;;5016089;28;20238;-65
2021/01/13 01:53:56;;;;;;;39.73;22.30;;;0.50;90.40;;;;;;5018722;28;20242;-65
2021/01/13 01:56:28;;;;;;;36.83;20.33;;;0.50;90.30;;;;;;5018148;28;20655;-65
2021/01/13 01:59:38;;;;;;;35.87;20.53;;;0.50;90.30;;;;;;5015070;28;20214;-65
2021/01/13 02:02:09;;;;;;;34.83;20.20;;;0.50;90.30;;;;;;5011463;28;20200;-65
2021/01/13 02:04:41;;;;;;;35.50;21.27;;;0.50;90.30;;;;;;5017929;28;20298;-65
2021/01/13 02:07:08;;;;;;;34.53;21.47;;;0.50;90.30;;;;;;5027967;28;20312;-65
2021/01/13 02:09:35;;;;;;;37.77;20.67;;;0.40;90.30;;;;;;5016703;28;20222;-65
2021/01/13 02:12:10;;;;;;;36.03;21.03;;;0.40;90.30;;;;;;5018119;28;20227;-65
2021/01/13 02:14:40;;;;;;;35.23;21.80;;;0.40;90.30;;;;;;5018124;28;20656;-65
2021/01/13 02:17:11;;;;;;;37.97;21.90;;;0.40;90.40;;;;;;5018320;28;20274;-65
2021/01/13 02:19:47;;;;;;;37.33;22.23;;;0.30;90.40;;;;;;5018213;28;20294;-65
2021/01/13 02:22:17;;;;;;;37.93;21.50;;;0.40;90.40;;;;;;5018502;28;20348;-65
2021/01/13 02:25:11;;;;;;;34.60;21.17;;;0.40;90.50;;;;;;5018214;28;20263;-65
2021/01/13 02:27:57;;;;;;;39.77;20.70;;;0.40;90.40;;;;;;5017998;28;20466;-65
2021/01/13 02:30:47;;;;;;;34.80;22.13;;;0.40;90.40;;;;;;5014561;28;20254;-65
2021/01/13 02:33:24;;;;;;;32.10;20.90;;;0.30;90.40;;;;;;5017688;28;20273;-65
2021/01/13 02:36:07;;;;;;;35.30;20.83;;;0.30;90.30;;;;;;5030130;28;20530;-65
2021/01/13 02:38:38;;;;;;;34.80;21.97;;;0.20;90.30;;;;;;5013160;28;20210;-65
2021/01/13 02:41:15;;;;;;;40.97;20.07;;;0.20;90.30;;;;;;5015042;28;20219;-65
2021/01/13 02:44:10;;;;;;;39.80;21.30;;;0.20;90.40;;;;;;5014827;28;20219;-65
2021/01/13 02:47:01;;;;;;;35.10;22.30;;;0.20;90.40;;;;;;5010723;28;20207;-65
2021/01/13 02:49:39;;;;;;;35.00;21.90;;;0.20;90.50;;;;;;5014043;28;20303;-65
2021/01/13 02:52:18;;;;;;;36.77;22.87;;;0.20;90.50;;;;;;5013289;28;20227;-65
2021/01/13 02:54:54;;;;;;;32.60;20.73;;;0.30;90.50;;;;;;5013817;28;20234;-65
2021/01/13 02:57:27;;;;;;;33.67;20.47;;;0.20;90.40;;;;;;5013443;28;20211;-65
2021/01/13 02:59:56;;;;;;;33.40;21.33;;;0.20;90.40;;;;;;5006641;28;20258;-65
2021/01/13 03:02:37;;;;;;;36.13;22.03;;;0.20;90.40;;;;;;5014972;28;20204;-65
2021/01/13 03:05:08;;;;;;;34.23;20.37;;;0.20;90.50;;;;;;5010951;28;20223;-65
2021/01/13 03:07:36;;;;;;;34.97;20.80;;;0.20;90.50;;;;;;5014562;28;20215;-65
2021/01/13 03:10:17;;;;;;;37.13;22.50;;;0.20;90.50;;;;;;5014717;28;20204;-65
2021/01/13 03:12:47;;;;;;;34.80;21.20;;;0.20;90.50;;;;;;5014137;28;20713;-65
2021/01/13 03:15:17;;;;;;;33.23;19.47;;;0.20;90.50;;;;;;5029869;28;20211;-65
2021/01/13 03:18:01;;;;;;;34.93;20.67;;;0.20;90.60;;;;;;5014666;28;20575;-65
2021/01/13 03:20:34;;;;;;;36.67;21.53;;;0.20;90.60;;;;;;5010772;28;20217;-65
2021/01/13 03:23:21;;;;;;;33.13;21.13;;;0.20;90.60;;;;;;5012646;28;20231;-65
2021/01/13 03:25:58;;;;;;;31.77;20.20;;;0.10;90.50;;;;;;5014030;28;20226;-65
2021/01/13 03:28:37;;;;;;;38.93;20.37;;;0.10;90.60;;;;;;5013493;28;20222;-65
2021/01/13 03:31:05;;;;;;;35.07;21.03;;;0.20;90.60;;;;;;5012791;28;20450;-65
2021/01/13 03:33:44;;;;;;;31.57;19.53;;;0.10;90.50;;;;;;5029023;28;20628;-65
2021/01/13 03:36:34;;;;;;;33.00;19.83;;;0.20;90.50;;;;;;5013227;28;20235;-65
2021/01/13 03:39:07;;;;;;;32.33;19.70;;;0.10;90.50;;;;;;5007557;28;20211;-65
2021/01/13 03:42:10;;;;;;;35.00;20.87;;;0.10;90.40;;;;;;5013397;28;20216;-65
2021/01/13 03:44:39;;;;;;;35.63;20.30;;;0.10;90.40;;;;;;5009693;28;20212;-65
2021/01/13 03:47:29;;;;;;;35.63;19.13;;;0.00;90.40;;;;;;5012618;28;20211;-65
2021/01/13 03:50:17;;;;;;;30.77;20.70;;;0.00;90.50;;;;;;5012018;28;20218;-65
2021/01/13 03:53:04;;;;;;;34.53;19.87;;;-0.10;90.50;;;;;;5012802;28;20550;-65
2021/01/13 03:55:34;;;;;;;29.23;18.67;;;-0.10;90.50;;;;;;5014060;28;20220;-65
2021/01/13 03:58:12;;;;;;;31.50;18.93;;;-0.10;90.50;;;;;;5029458;28;20228;-65
2021/01/13 04:01:04;;;;;;;33.23;19.10;;;-0.20;90.50;;;;;;5013215;28;20219;-65
2021/01/13 04:03:55;;;;;;;26.20;16.83;;;-0.20;90.50;;;;;;4967490;28;20292;-65
2021/01/13 04:06:22;;;;;;;29.97;17.67;;;-0.20;90.50;;;;;;5009543;28;20223;-65
2021/01/13 04:08:49;;;;;;;26.00;16.53;;;-0.30;90.30;;;;;;5013194;28;20225;-65
2021/01/13 04:11:18;;;;;;;28.43;17.57;;;-0.30;90.30;;;;;;5014051;28;20231;-65
2021/01/13 04:13:47;;;;;;;30.70;18.37;;;-0.30;90.50;;;;;;5013309;28;20262;-65
2021/01/13 04:16:21;;;;;;;29.90;18.27;;;-0.30;90.50;;;;;;5013092;28;20207;-65
2021/01/13 04:18:50;;;;;;;31.77;18.67;;;-0.30;90.50;;;;;;5011679;28;20199;-65
2021/01/13 04:21:21;;;;;;;37.63;19.47;;;-0.30;90.30;;;;;;5013396;28;20303;-65
2021/01/13 04:23:48;;;;;;;30.23;18.27;;;-0.40;90.30;;;;;;5012118;28;20212;-65
2021/01/13 04:26:15;;;;;;;34.50;18.87;;;-0.40;90.40;;;;;;5013467;28;20234;-65
2021/01/13 04:28:42;;;;;;;35.43;19.80;;;-0.40;90.40;;;;;;5012699;28;20216;-65
2021/01/13 04:31:09;;;;;;;35.70;20.07;;;-0.50;90.40;;;;;;5012829;28;20238;-65
2021/01/13 04:33:36;;;;;;;38.67;22.57;;;-0.50;90.40;;;;;;5012856;28;20307;-65
2021/01/13 04:36:03;;;;;;;32.50;20.50;;;-0.50;90.40;;;;;;5012241;28;20269;-65
2021/01/13 04:38:32;;;;;;;30.87;19.50;;;-0.50;90.50;;;;;;5017476;28;20602;-65
2021/01/13 04:41:09;;;;;;;29.83;19.80;;;-0.50;90.60;;;;;;5012245;28;20215;-65
2021/01/13 04:43:47;;;;;;;29.50;18.37;;;-0.50;90.60;;;;;;5010703;28;20650;-65
2021/01/13 04:46:38;;;;;;;29.90;19.67;;;-0.40;90.70;;;;;;5012681;28;20212;-65
2021/01/13 04:49:06;;;;;;;30.17;20.03;;;-0.40;90.70;;;;;;5014521;28;20531;-65
2021/01/13 04:51:36;;;;;;;35.70;20.67;;;-0.40;90.60;;;;;;5012241;28;20227;-65
2021/01/13 04:54:11;;;;;;;33.00;19.23;;;-0.40;90.60;;;;;;5006164;28;20535;-65
2021/01/13 04:56:39;;;;;;;33.07;19.93;;;-0.40;90.60;;;;;;5012084;28;20212;-65
2021/01/13 04:59:30;;;;;;;33.07;18.90;;;-0.40;90.70;;;;;;5012388;28;20222;-65
2021/01/13 05:02:16;;;;;;;31.17;18.93;;;-0.40;90.70;;;;;;5010283;28;20663;-65
2021/01/13 05:04:59;;;;;;;27.57;17.70;;;-0.40;90.80;;;;;;5011443;28;20281;-65
2021/01/13 05:07:25;;;;;;;32.33;19.17;;;-0.50;90.90;;;;;;5011799;28;20208;-67
2021/01/13 05:09:59;;;;;;;35.83;19.43;;;-0.60;90.60;;;;;;5008157;28;20219;-65
2021/01/13 05:12:27;;;;;;;34.63;18.63;;;-0.60;90.60;;;;;;5010832;28;20231;-65
2021/01/13 05:15:00;;;;;;;29.43;19.20;;;-0.70;90.70;;;;;;5007544;28;20208;-65
2021/01/13 05:17:34;;;;;;;32.20;19.07;;;-0.70;90.80;;;;;;5012319;28;20637;-64
2021/01/13 05:20:07;;;;;;;34.63;18.80;;;-0.70;90.80;;;;;;5012752;28;20625;-64
2021/01/13 05:22:35;;;;;;;29.43;19.30;;;-0.70;90.90;;;;;;5010150;28;20212;-65
2021/01/13 05:25:05;;;;;;;29.03;17.73;;;-0.70;90.80;;;;;;5012047;28;20225;-64
2021/01/13 05:28:06;;;;;;;28.17;16.83;;;-0.70;90.80;;;;;;5011931;28;20319;-64
2021/01/13 05:30:39;;;;;;;25.80;16.07;;;-0.80;90.80;;;;;;5011746;28;20228;-65
2021/01/13 05:33:08;;;;;;;23.03;14.07;;;-0.70;90.90;;;;;;5006018;28;20874;-65
2021/01/13 05:35:40;;;;;;;29.07;15.30;;;-0.70;90.90;;;;;;5026884;28;20219;-64
2021/01/13 05:38:11;;;;;;;26.37;14.80;;;-0.70;91.20;;;;;;5011093;28;20204;-64
2021/01/13 05:40:45;;;;;;;26.87;16.43;;;-0.70;90.90;;;;;;5012578;28;20221;-65
2021/01/13 05:43:12;;;;;;;28.63;16.40;;;-0.70;90.90;;;;;;5009747;28;20522;-64
2021/01/13 05:45:40;;;;;;;29.03;15.97;;;-0.60;90.90;;;;;;5012255;28;20226;-64
2021/01/13 05:48:22;;;;;;;23.60;14.53;;;-0.60;90.90;;;;;;5011407;28;20215;-64
2021/01/13 05:50:54;;;;;;;25.27;15.57;;;-0.60;90.90;;;;;;5011323;28;20246;-64
2021/01/13 05:53:24;;;;;;;28.53;15.33;;;-0.60;90.80;;;;;;5010325;28;20212;-64
2021/01/13 05:55:52;;;;;;;23.73;14.90;;;-0.60;90.90;;;;;;5011933;28;20204;-65
2021/01/13 05:58:24;;;;;;;23.47;14.53;;;-0.60;90.90;;;;;;5011510;28;20217;-64
2021/01/13 06:00:55;;;;;;;21.87;13.37;;;-0.60;90.90;;;;;;5010563;28;20204;-64
2021/01/13 06:03:24;;;;;;;24.43;14.77;;;-0.60;90.90;;;;;;5007944;28;20208;-64
2021/01/13 06:05:53;;;;;;;21.90;14.60;;;-0.60;90.90;;;;;;5011715;28;20219;-64
2021/01/13 06:08:30;;;;;;;22.90;13.77;;;-0.50;90.80;;;;;;5011519;28;20235;-64
2021/01/13 06:11:02;;;;;;;22.53;14.70;;;-0.50;90.80;;;;;;5027896;28;20227;-65
2021/01/13 06:13:32;;;;;;;22.43;13.90;;;-0.50;91.10;;;;;;5015486;28;20230;-64
2021/01/13 06:16:05;;;;;;;21.47;13.13;;;-0.40;90.80;;;;;;5015365;28;20208;-64
2021/01/13 06:18:34;;;;;;;20.47;13.70;;;-0.40;90.80;;;;;;5012892;28;20218;-64
2021/01/13 06:21:09;;;;;;;23.40;13.33;;;-0.40;90.80;;;;;;5015841;28;20222;-64
2021/01/13 06:23:49;;;;;;;22.33;13.03;;;-0.40;90.70;;;;;;5018906;28;20211;-65
2021/01/13 06:26:17;;;;;;;22.10;13.10;;;-0.30;90.70;;;;;;5030687;28;20230;-64
2021/01/13 06:28:59;;;;;;;21.43;13.93;;;-0.30;90.60;;;;;;5015126;28;20238;-64
2021/01/13 06:31:27;;;;;;;17.57;12.47;;;-0.30;90.50;;;;;;5013932;28;20224;-64
2021/01/13 06:34:21;;;;;;;21.60;13.07;;;-0.30;90.50;;;;;;5011406;28;20234;-64
2021/01/13 06:36:51;;;;;;;26.77;14.23;;;-0.40;90.40;;;;;;5029829;28;20236;-65
2021/01/13 06:39:17;;;;;;;24.37;15.33;;;-0.30;90.50;;;;;;5030483;28;20225;-64
2021/01/13 06:41:49;;;;;;;23.93;14.77;;;-0.40;90.40;;;;;;5014721;28;20212;-64
2021/01/13 06:44:17;;;;;;;19.90;13.17;;;-0.40;90.50;;;;;;5030714;28;20219;-64
2021/01/13 06:46:44;;;;;;;20.40;12.73;;;-0.40;90.40;;;;;;5015140;28;20258;-64
2021/01/13 06:49:18;;;;;;;18.50;12.23;;;-0.40;90.40;;;;;;5015314;28;20211;-65
2021/01/13 06:51:50;;;;;;;18.90;12.77;;;-0.40;90.40;;;;;;5014142;28;20745;-63
2021/01/13 06:54:21;;;;;;;22.43;13.57;;;-0.40;90.40;;;;;;5010153;28;20200;-64
2021/01/13 06:56:56;;;;;;;21.33;13.20;;;-0.40;90.40;;;;;;5030360;28;20218;-65
2021/01/13 06:59:24;;;;;;;23.60;14.90;;;-0.40;90.40;;;;;;5014220;28;20218;-64
2021/01/13 07:01:58;;;;;;;25.07;15.13;;;-0.30;90.50;;;;;;5014108;28;20222;-65
2021/01/13 07:04:27;;;;;;;24.67;15.83;;;-0.20;90.40;;;;;;5013709;28;20214;-64
2021/01/13 07:07:07;;;;;;;26.43;15.97;;;-0.10;90.30;;;;;;5013308;28;20294;-64
2021/01/13 07:09:42;;;;;;;26.33;16.70;;;0.10;90.30;;;;;;5011433;28;20216;-66
2021/01/13 07:12:14;;;;;;;29.60;15.77;;;0.20;90.20;;;;;;5014199;28;20247;-64
2021/01/13 07:14:44;;;;;;;33.03;17.50;;;0.30;90.10;;;;;;5014391;28;20227;-64
2021/01/13 07:17:18;;;;;;;28.03;18.17;;;0.40;90.10;;;;;;5014371;28;20686;-66
2021/01/13 07:19:54;;;;;;;29.13;17.47;;;0.60;90.00;;;;;;5013277;28;20243;-65
2021/01/13 07:22:25;;;;;;;29.57;18.00;;;0.70;89.40;;;;;;5010824;28;20210;-65
2021/01/13 07:24:53;;;;;;;29.17;17.53;;;0.80;88.90;;;;;;5010739;28;20212;-68
2021/01/13 07:27:20;;;;;;;25.70;16.27;;;1.00;88.40;;;;;;5029542;28;20666;-67
2021/01/13 07:29:48;;;;;;;30.40;19.23;;;1.10;88.00;;;;;;5014830;28;20230;-66
2021/01/13 07:32:20;;;;;;;25.17;16.27;;;1.20;87.70;;;;;;5014325;28;20227;-66
2021/01/13 07:34:57;;;;;;;28.90;17.23;;;1.30;87.50;;;;;;5029630;28;20257;-65
2021/01/13 07:37:24;;;;;;;28.73;17.30;;;1.30;87.20;;;;;;5011345;28;20238;-66
2021/01/13 07:40:16;;;;;;;31.43;17.33;;;1.40;86.90;;;;;;5014247;28;20277;-65
2021/01/13 07:42:47;;;;;;;30.37;18.93;;;1.40;86.80;;;;;;5013314;28;20207;-65
2021/01/13 07:45:19;;;;;;;31.23;19.13;;;1.50;86.50;;;;;;5014112;28;20609;-64
2021/01/13 07:48:08;;;;;;;29.10;18.73;;;1.60;86.40;;;;;;5013637;28;20210;-65
2021/01/13 07:50:47;;;;;;;34.83;19.30;;;1.60;86.20;;;;;;5011568;28;20214;-65
2021/01/13 07:53:26;;;;;;;32.50;21.43;;;1.60;86.00;;;;;;5013798;28;20651;-64
2021/01/13 07:55:57;;;;;;;32.43;20.70;;;1.60;86.00;;;;;;5009611;28;20212;-67
2021/01/13 07:58:29;;;;;;;32.67;21.77;;;1.60;86.20;;;;;;5025734;28;20203;-65
2021/01/13 08:01:37;;;;;;;30.93;21.20;;;1.60;86.40;;;;;;5020107;28;20215;-68
2021/01/13 08:04:46;;;;;;;36.20;21.03;;;1.70;86.10;;;;;;4990373;28;20238;-64
2021/01/13 08:07:16;;;;;;;31.00;19.70;;;1.60;85.80;;;;;;5009901;28;21063;-66
2021/01/13 08:09:50;;;;;;;31.37;21.20;;;1.60;85.80;;;;;;5014267;28;20701;-65
2021/01/13 08:13:01;;;;;;;34.57;21.47;;;1.60;85.70;;;;;;5013802;28;20318;-66
2021/01/13 08:16:05;;;;;;;34.53;22.23;;;1.70;85.60;;;;;;5013652;28;20273;-65
2021/01/13 08:18:50;;;;;;;36.13;22.43;;;1.80;85.00;;;;;;5009276;28;20208;-65
2021/01/13 08:26:42;;;;;;;27.03;19.30;;;2.10;84.70;;;;;;5013326;28;20212;-63
2021/01/13 08:29:18;;;;;;;27.03;17.63;;;2.20;84.30;;;;;;5028566;28;20508;-67
2021/01/13 08:31:50;;;;;;;30.73;16.53;;;2.20;83.30;;;;;;5012457;28;20262;-64
2021/01/13 08:34:21;;;;;;;25.83;18.10;;;2.10;82.90;;;;;;5028503;28;20246;-63
2021/01/13 08:36:55;;;;;;;27.30;18.03;;;2.00;82.60;;;;;;5012954;28;20528;-64
2021/01/13 08:39:32;;;;;;;28.63;18.10;;;1.90;82.60;;;;;;5013043;28;20208;-62
2021/01/13 08:42:26;;;;;;;30.80;19.40;;;1.90;83.00;;;;;;5012159;28;20289;-64
2021/01/13 08:44:54;;;;;;;29.57;19.17;;;1.90;83.30;;;;;;5005216;28;20211;-64
2021/01/13 08:47:24;;;;;;;32.67;19.97;;;2.00;83.60;;;;;;5008858;28;20231;-65
2021/01/13 08:49:52;;;;;;;28.73;19.17;;;2.10;83.50;;;;;;5012731;28;20287;-62
2021/01/13 08:52:18;;;;;;;32.03;20.93;;;2.20;83.40;;;;;;5011213;28;20231;-65
2021/01/13 08:55:14;;;;;;;31.83;20.77;;;2.30;82.90;;;;;;5012246;28;20218;-64
2021/01/13 08:58:08;;;;;;;32.90;21.53;;;2.30;82.70;;;;;;5012337;28;20644;-65
2021/01/13 09:00:37;;;;;;;29.73;19.00;;;2.40;82.60;;;;;;5010150;28;20307;-66
2021/01/13 09:03:24;;;;;;;36.17;22.80;;;2.60;82.60;;;;;;5028041;28;20207;-65
2021/01/13 09:05:56;;;;;;;35.47;21.60;;;2.70;82.50;;;;;;5012903;28;20210;-66
2021/01/13 09:08:32;;;;;;;32.80;21.43;;;2.90;82.50;;;;;;5012447;28;20215;-67
2021/01/13 09:11:00;;;;;;;33.00;22.90;;;3.00;82.20;;;;;;5009358;28;20314;-65
2021/01/13 09:13:43;;;;;;;36.23;24.10;;;3.20;82.00;;;;;;5011373;28;20212;-62
2021/01/13 09:16:25;;;;;;;44.33;25.00;;;3.30;81.70;;;;;;5012295;28;20721;-66
2021/01/13 09:19:10;;;;;;;37.03;23.13;;;3.40;81.70;;;;;;5011690;28;20199;-63
2021/01/13 09:21:39;;;;;;;39.30;25.40;;;3.50;81.50;;;;;;5012505;28;20222;-66
2021/01/13 09:24:09;;;;;;;37.60;24.97;;;3.70;81.30;;;;;;5008434;28;20236;-66
2021/01/13 09:26:37;;;;;;;44.50;26.33;;;3.80;81.20;;;;;;5010629;28;20242;-65
2021/01/13 09:29:09;;;;;;;38.67;25.33;;;3.90;81.10;;;;;;5012063;28;20215;-67
2021/01/13 09:31:38;;;;;;;36.77;25.87;;;4.00;80.90;;;;;;5011986;28;20242;-66
2021/01/13 09:34:07;;;;;;;43.20;27.80;;;4.10;80.50;;;;;;5012457;28;20477;-65
2021/01/13 09:36:57;;;;;;;39.63;26.27;;;4.20;80.50;;;;;;5012141;28;20263;-67
2021/01/13 09:39:34;;;;;;;41.77;27.20;;;4.30;80.00;;;;;;5026514;28;20218;-66
2021/01/13 09:42:02;;;;;;;38.83;27.27;;;4.40;79.90;;;;;;5008266;28;20221;-65
2021/01/13 09:44:31;;;;;;;39.77;26.57;;;4.50;79.60;;;;;;5013579;28;20641;-65
2021/01/13 09:46:59;;;;;;;40.10;27.63;;;4.50;78.60;;;;;;5015976;28;20315;-68
2021/01/13 09:49:26;;;;;;;42.27;27.50;;;4.50;78.10;;;;;;5016626;28;20219;-66
2021/01/13 09:51:53;;;;;;;41.10;28.73;;;4.50;78.20;;;;;;5012605;28;20735;-66
2021/01/13 09:54:23;;;;;;;41.77;27.80;;;4.60;78.50;;;;;;5016878;28;20266;-65
2021/01/13 09:56:56;;;;;;;47.43;29.40;;;4.60;78.20;;;;;;5016217;28;20203;-64
2021/01/13 09:59:25;;;;;;;44.07;27.90;;;4.70;77.20;;;;;;5016240;28;20254;-64
2021/01/13 10:01:56;;;;;;;37.50;25.43;;;4.70;76.90;;;;;;5015758;28;20216;-63
2021/01/13 10:04:24;;;;;;;38.20;26.30;;;4.60;76.10;;;;;;5012347;28;20216;-65
2021/01/13 10:06:53;;;;;;;38.77;26.50;;;4.60;75.60;;;;;;5015941;28;20947;-64
2021/01/13 10:09:20;;;;;;;38.40;26.97;;;4.60;75.90;;;;;;5013508;28;20204;-63
2021/01/13 10:11:54;;;;;;;43.53;28.97;;;4.60;75.30;;;;;;5014765;28;20243;-64
2021/01/13 10:14:22;;;;;;;41.60;28.07;;;4.70;74.50;;;;;;5010960;28;20222;-64
2021/01/13 10:16:50;;;;;;;41.50;27.70;;;4.70;74.50;;;;;;5016024;28;20208;-65
2021/01/13 10:19:19;;;;;;;39.57;27.90;;;4.70;74.60;;;;;;5015310;28;20311;-64
2021/01/13 10:21:48;;;;;;;43.63;27.57;;;4.70;74.80;;;;;;5014331;28;20212;-65
2021/01/13 10:24:17;;;;;;;40.93;27.77;;;4.60;74.70;;;;;;5015938;28;20617;-65
2021/01/13 10:26:47;;;;;;;39.40;27.13;;;4.60;74.80;;;;;;5015529;28;20547;-63
2021/01/13 10:29:23;;;;;;;45.87;28.50;;;4.70;75.30;;;;;;5031064;28;20219;-64
2021/01/13 10:31:51;;;;;;;43.50;29.87;;;4.70;75.60;;;;;;5015240;28;20223;-63
2021/01/13 10:34:19;;;;;;;51.23;31.03;;;4.70;75.10;;;;;;5015029;28;20222;-64
2021/01/13 10:36:47;;;;;;;42.13;28.87;;;4.80;75.40;;;;;;5014854;28;20270;-64
2021/01/13 10:39:26;;;;;;;43.10;28.47;;;4.80;75.00;;;;;;5015775;28;20219;-62
2021/01/13 10:41:55;;;;;;;44.87;28.43;;;4.90;75.10;;;;;;5013322;28;20215;-64
2021/01/13 10:44:24;;;;;;;43.10;29.00;;;4.90;75.10;;;;;;5015294;28;20332;-64
2021/01/13 10:47:01;;;;;;;38.50;27.97;;;4.90;76.00;;;;;;5013379;28;20290;-63
2021/01/13 10:49:35;;;;;;;49.47;31.23;;;5.00;75.90;;;;;;5015492;28;20298;-64
2021/01/13 10:52:10;;;;;;;58.10;31.13;;;5.00;75.80;;;;;;5011469;28;20239;-64
2021/01/13 10:54:39;;;;;;;45.50;29.40;;;5.10;76.00;;;;;;5030535;28;20208;-64
2021/01/13 10:57:08;;;;;;;47.63;31.17;;;5.20;76.20;;;;;;5014062;28;20212;-64
2021/01/13 10:59:36;;;;;;;40.27;28.97;;;5.30;76.10;;;;;;5014632;28;20287;-64
2021/01/13 11:02:06;;;;;;;40.60;28.43;;;5.40;74.80;;;;;;5010470;28;20294;-63
2021/01/13 11:04:37;;;;;;;44.80;29.07;;;5.40;73.60;;;;;;5014822;28;20212;-62
2021/01/13 11:07:07;;;;;;;40.47;28.80;;;5.40;73.90;;;;;;5014213;28;20204;-62
2021/01/13 11:09:36;;;;;;;42.37;29.47;;;5.50;73.40;;;;;;5013864;28;20223;-63
2021/01/13 11:12:03;;;;;;;43.57;29.23;;;5.40;73.60;;;;;;5028790;28;20667;-62
2021/01/13 11:14:38;;;;;;;41.20;28.53;;;5.50;74.10;;;;;;5011405;28;20344;-64
2021/01/13 11:17:14;;;;;;;48.87;30.83;;;5.60;73.70;;;;;;5014006;28;20227;-62
2021/01/13 11:19:47;;;;;;;48.07;31.60;;;5.70;73.50;;;;;;5014797;28;20298;-64
2021/01/13 11:22:14;;;;;;;40.73;29.70;;;5.70;73.10;;;;;;5029423;28;20216;-62
2021/01/13 11:24:45;;;;;;;46.53;28.47;;;5.70;73.30;;;;;;5014450;28;20645;-63
2021/01/13 11:27:19;;;;;;;43.13;29.50;;;5.70;73.20;;;;;;5014119;28;20207;-62
2021/01/13 11:29:52;;;;;;;46.13;30.60;;;5.70;72.90;;;;;;5014221;28;20241;-65
2021/01/13 11:32:20;;;;;;;48.77;29.43;;;5.80;72.90;;;;;;5029499;28;20239;-65
2021/01/13 11:34:50;;;;;;;44.27;29.03;;;5.90;73.40;;;;;;5013625;28;20525;-62
2021/01/13 11:37:19;;;;;;;37.97;28.93;;;6.00;72.60;;;;;;5029267;28;20251;-62
2021/01/13 11:40:07;;;;;;;42.80;29.13;;;6.10;71.90;;;;;;5013402;28;20222;-65
2021/01/13 11:43:11;;;;;;;45.53;29.83;;;6.10;71.80;;;;;;5013176;28;20222;-61
2021/01/13 11:45:56;;;;;;;41.50;30.83;;;6.20;72.70;;;;;;5011973;28;20207;-62
2021/01/13 11:48:30;;;;;;;45.83;31.87;;;6.50;72.80;;;;;;5010194;28;20203;-62
2021/01/13 11:51:02;;;;;;;44.27;30.30;;;6.70;72.10;;;;;;5007791;28;20214;-63
2021/01/13 11:53:34;;;;;;;43.53;30.80;;;6.80;71.90;;;;;;5011777;28;20238;-63
2021/01/13 11:56:02;;;;;;;49.60;32.13;;;6.90;71.20;;;;;;5014014;28;20204;-66
2021/01/13 11:58:30;;;;;;;47.17;31.50;;;6.90;71.60;;;;;;5012707;28;20218;-64
2021/01/13 12:00:57;;;;;;;43.90;31.80;;;6.90;71.70;;;;;;5013605;28;20231;-66
2021/01/13 12:03:24;;;;;;;42.07;31.03;;;6.90;71.90;;;;;;5013387;28;20215;-64
2021/01/13 12:05:51;;;;;;;41.50;29.23;;;6.80;71.50;;;;;;5006991;28;20234;-64
2021/01/13 12:08:18;;;;;;;49.77;30.67;;;6.90;71.30;;;;;;5012103;28;20211;-64
2021/01/13 12:10:53;;;;;;;39.73;28.33;;;6.90;71.70;;;;;;5029057;28;20223;-64
2021/01/13 12:13:26;;;;;;;42.77;30.00;;;7.00;71.30;;;;;;5029117;28;20203;-64
2021/01/13 12:15:54;;;;;;;46.10;30.97;;;7.20;71.50;;;;;;5004078;28;20212;-64
2021/01/13 12:18:26;;;;;;;46.33;30.63;;;7.30;70.80;;;;;;5013351;28;20237;-64
2021/01/13 12:21:13;;;;;;;43.77;31.23;;;7.20;70.40;;;;;;5010759;28;20215;-64
2021/01/13 12:23:46;;;;;;;42.77;29.80;;;7.10;70.40;;;;;;5001298;28;20222;-64
2021/01/13 12:26:19;;;;;;;40.83;29.23;;;7.00;70.50;;;;;;5013461;28;20212;-64
2021/01/13 12:28:48;;;;;;;46.93;31.57;;;7.00;70.30;;;;;;5011955;28;20219;-63
2021/01/13 12:31:17;;;;;;;41.43;31.27;;;6.90;70.70;;;;;;5010963;28;20242;-64
2021/01/13 12:33:55;;;;;;;41.97;30.17;;;6.80;71.00;;;;;;5005973;28;20300;-63
2021/01/13 12:36:24;;;;;;;45.40;31.73;;;6.80;71.50;;;;;;5011586;28;20227;-63
2021/01/13 12:38:52;;;;;;;44.57;31.13;;;6.80;72.00;;;;;;5013806;28;20239;-63
2021/01/13 12:41:27;;;;;;;43.03;30.33;;;6.70;72.40;;;;;;5012633;28;20224;-63
2021/01/13 12:43:55;;;;;;;45.27;32.17;;;6.70;72.10;;;;;;5004148;28;20218;-63
2021/01/13 12:46:33;;;;;;;44.33;32.07;;;6.80;72.10;;;;;;5023896;28;20208;-63
2021/01/13 12:49:01;;;;;;;47.90;31.00;;;6.80;72.30;;;;;;5022782;28;20216;-63
2021/01/13 12:51:28;;;;;;;45.70;30.27;;;6.90;72.30;;;;;;5009191;28;20247;-63
2021/01/13 12:53:56;;;;;;;42.67;29.87;;;6.90;72.00;;;;;;5012142;28;20239;-63
2021/01/13 12:56:26;;;;;;;43.87;31.87;;;6.90;72.00;;;;;;5013091;28;20216;-63
2021/01/13 12:58:54;;;;;;;229.87;164.60;;;6.90;72.00;;;;;;5024115;28;20208;-63
2021/01/13 13:01:22;;;;;;;56.37;39.03;;;6.80;72.30;;;;;;5012827;28;20200;-63
2021/01/13 13:03:50;;;;;;;1999.90;975.53;;;6.90;72.70;;;;;;5012749;28;20632;-63
2021/01/13 13:06:32;;;;;;;1399.73;624.83;;;6.90;73.00;;;;;;5012018;28;20217;-63
2021/01/13 13:09:01;;;;;;;1999.90;999.90;;;6.80;72.90;;;;;;5001654;28;20208;-63